Time;durP1;ratioP1;P1;durP2;ratioP2;P2;SDS_P1;SDS_P2;PMS_P1;PMS_P2;Temp;Humidity;BMP_temperature;BMP_pressure;BME280_temperature;BME280_humidity;BME280_pressure;Samples;Min_cycle;Max_cycle;Signal;HPM_P1;HPM_P2
2022/03/15 00:01:14;;;;;;;9.48;6.00;;;4.10;99.90;;;;;;4952575;28;20378;-58
2022/03/15 00:03:40;;;;;;;10.38;5.18;;;4.20;99.90;;;;;;4935585;29;20127;-59
2022/03/15 00:06:06;;;;;;;11.38;6.38;;;4.00;99.90;;;;;;4935691;29;20071;-58
2022/03/15 00:08:32;;;;;;;9.38;5.97;;;4.00;99.90;;;;;;4952845;29;20126;-58
2022/03/15 00:11:04;;;;;;;6.72;5.35;;;4.10;99.90;;;;;;4952762;28;20050;-59
2022/03/15 00:13:30;;;;;;;10.68;5.28;;;4.00;99.90;;;;;;4952764;28;20052;-59
2022/03/15 00:16:01;;;;;;;10.82;5.70;;;4.10;99.90;;;;;;4952625;29;20054;-58
2022/03/15 00:18:30;;;;;;;9.15;5.90;;;4.10;99.90;;;;;;4947555;28;20051;-58
2022/03/15 00:20:59;;;;;;;8.20;6.28;;;4.00;99.90;;;;;;4945368;28;20031;-58
2022/03/15 00:23:25;;;;;;;12.77;6.55;;;4.10;99.90;;;;;;4943619;29;20048;-59
2022/03/15 00:25:54;;;;;;;11.30;6.57;;;4.30;99.90;;;;;;4935291;29;20043;-57
2022/03/15 00:28:22;;;;;;;14.60;7.97;;;3.90;99.90;;;;;;4952600;28;20054;-57
2022/03/15 00:30:49;;;;;;;12.02;6.65;;;4.00;99.90;;;;;;4952552;28;20122;-59
2022/03/15 00:33:15;;;;;;;12.55;6.90;;;4.00;99.90;;;;;;4935217;29;20047;-57
2022/03/15 00:35:41;;;;;;;11.15;6.03;;;3.90;99.90;;;;;;4952213;28;20389;-58
2022/03/15 00:38:08;;;;;;;11.13;6.15;;;4.00;99.90;;;;;;4934969;29;20047;-58
2022/03/15 00:40:35;;;;;;;9.20;6.22;;;3.80;99.90;;;;;;4952348;28;20047;-59
2022/03/15 00:43:01;;;;;;;10.43;6.50;;;3.80;99.90;;;;;;4947094;29;20066;-58
2022/03/15 00:45:28;;;;;;;13.55;6.65;;;4.10;99.90;;;;;;4944691;28;20039;-57
2022/03/15 00:47:55;;;;;;;13.63;7.15;;;4.20;99.90;;;;;;4952831;29;20046;-62
2022/03/15 00:50:22;;;;;;;16.10;8.00;;;4.00;99.90;;;;;;4935786;28;20074;-62
2022/03/15 00:52:49;;;;;;;14.50;9.23;;;3.90;99.90;;;;;;4935759;29;20089;-62
2022/03/15 00:55:15;;;;;;;14.90;7.72;;;4.10;99.90;;;;;;4953001;29;20039;-62
2022/03/15 00:57:41;;;;;;;22.00;9.70;;;4.00;99.90;;;;;;4935797;29;20116;-62
2022/03/15 01:00:08;;;;;;;17.35;8.63;;;4.10;99.90;;;;;;4952951;28;20039;-62
2022/03/15 01:02:34;;;;;;;14.65;7.97;;;4.00;99.90;;;;;;4952775;29;20051;-62
2022/03/15 01:05:00;;;;;;;15.30;7.78;;;4.10;99.90;;;;;;4952619;29;20524;-62
2022/03/15 01:07:25;;;;;;;17.90;8.82;;;4.10;99.90;;;;;;4952600;29;20149;-62
2022/03/15 01:09:51;;;;;;;16.33;8.65;;;;;;;;;;4951860;29;20147;-58
2022/03/15 01:12:17;;;;;;;15.05;8.10;;;4.20;99.90;;;;;;4952847;28;20067;-62
2022/03/15 01:14:42;;;;;;;15.00;8.00;;;4.10;99.90;;;;;;4935047;29;20036;-62
2022/03/15 01:17:09;;;;;;;18.00;10.38;;;4.10;99.90;;;;;;4952613;29;20040;-62
2022/03/15 01:19:34;;;;;;;24.92;11.73;;;4.40;99.90;;;;;;4952087;29;20043;-62
2022/03/15 01:22:00;;;;;;;28.30;11.23;;;4.50;99.90;;;;;;4952334;28;20067;-62
2022/03/15 01:24:26;;;;;;;24.60;11.98;;;4.50;99.90;;;;;;4935094;28;20050;-62
2022/03/15 01:26:54;;;;;;;18.65;8.93;;;4.60;99.90;;;;;;4952347;28;20043;-62
2022/03/15 01:29:21;;;;;;;13.52;7.93;;;4.50;99.90;;;;;;4952400;29;20049;-62
2022/03/15 01:31:49;;;;;;;13.50;8.43;;;4.40;99.90;;;;;;4952892;28;20511;-62
2022/03/15 01:34:15;;;;;;;20.77;8.93;;;4.50;99.90;;;;;;4955108;28;20047;-62
2022/03/15 01:36:41;;;;;;;15.30;8.30;;;4.60;99.90;;;;;;4955418;29;20054;-62
2022/03/15 01:39:07;;;;;;;16.55;8.05;;;4.50;99.90;;;;;;4938152;28;20039;-62
2022/03/15 01:41:38;;;;;;;13.38;7.35;;;4.50;99.90;;;;;;4955421;28;20050;-62
2022/03/15 01:44:12;;;;;;;11.48;8.40;;;4.60;99.90;;;;;;4938467;28;20051;-62
2022/03/15 01:46:37;;;;;;;12.82;7.95;;;4.70;99.90;;;;;;4955252;29;20082;-62
2022/03/15 01:49:03;;;;;;;14.98;8.77;;;4.80;99.90;;;;;;4938038;29;20044;-62
2022/03/15 01:51:29;;;;;;;13.05;8.60;;;4.70;99.90;;;;;;4937987;29;20051;-62
2022/03/15 01:53:54;;;;;;;21.63;10.38;;;4.80;99.90;;;;;;4937858;29;20048;-62
2022/03/15 01:56:20;;;;;;;19.67;9.02;;;4.70;99.90;;;;;;4937936;28;20054;-62
2022/03/15 01:58:45;;;;;;;25.60;10.93;;;4.90;99.90;;;;;;4955169;29;20043;-62
2022/03/15 02:01:11;;;;;;;25.73;12.63;;;;;;;;;;4953525;28;20094;-60
2022/03/15 02:03:37;;;;;;;25.65;12.27;;;5.20;99.90;;;;;;4938052;29;20122;-62
2022/03/15 02:06:05;;;;;;;22.85;11.52;;;5.30;99.90;;;;;;4954878;29;20106;-62
2022/03/15 02:08:31;;;;;;;29.30;13.32;;;5.40;99.90;;;;;;4954640;29;20408;-62
2022/03/15 02:10:57;;;;;;;28.23;14.10;;;;;;;;;;4954735;28;20048;-62
2022/03/15 02:13:23;;;;;;;27.52;12.45;;;5.70;99.90;;;;;;4954827;29;20044;-62
2022/03/15 02:15:50;;;;;;;31.60;12.70;;;;;;;;;;4954561;29;20054;-61
2022/03/15 02:18:18;;;;;;;26.92;12.70;;;5.80;99.90;;;;;;4954609;29;20055;-62
2022/03/15 02:20:44;;;;;;;33.28;14.15;;;5.90;99.90;;;;;;4954624;28;20043;-62
2022/03/15 02:23:12;;;;;;;28.58;13.27;;;5.90;99.90;;;;;;4937168;28;20578;-62
2022/03/15 02:25:38;;;;;;;28.45;12.95;;;6.00;99.90;;;;;;4954339;29;20524;-62
2022/03/15 02:28:04;;;;;;;24.02;12.70;;;6.20;99.90;;;;;;4954246;29;20079;-62
2022/03/15 02:30:30;;;;;;;29.45;13.60;;;6.10;99.90;;;;;;4936938;29;20047;-62
2022/03/15 02:32:57;;;;;;;24.98;13.93;;;6.20;99.90;;;;;;4954265;29;20047;-62
2022/03/15 02:35:22;;;;;;;28.13;12.80;;;6.00;99.90;;;;;;4936855;29;20142;-62
2022/03/15 02:37:48;;;;;;;34.33;14.60;;;6.20;99.90;;;;;;4936947;28;20177;-59
2022/03/15 02:40:13;;;;;;;31.42;15.95;;;6.20;99.90;;;;;;4954119;28;20507;-59
2022/03/15 02:42:39;;;;;;;36.80;16.45;;;6.30;99.90;;;;;;4953816;28;20047;-58
2022/03/15 02:45:05;;;;;;;30.60;16.50;;;6.30;99.90;;;;;;4953860;28;20039;-58
2022/03/15 02:47:31;;;;;;;34.40;16.80;;;6.50;99.90;;;;;;4953791;29;20051;-59
2022/03/15 02:49:56;;;;;;;38.65;17.52;;;6.30;99.90;;;;;;4954053;28;20097;-59
2022/03/15 02:52:22;;;;;;;36.85;16.58;;;6.30;99.90;;;;;;4953966;28;20093;-57
2022/03/15 02:54:47;;;;;;;28.75;14.68;;;6.30;99.90;;;;;;4954119;28;20050;-59
2022/03/15 02:57:13;;;;;;;35.47;17.08;;;6.10;99.90;;;;;;4953761;28;20047;-59
2022/03/15 02:59:39;;;;;;;30.52;14.98;;;;;;;;;;4936542;28;20075;-59
2022/03/15 03:02:06;;;;;;;32.05;16.17;;;6.40;99.90;;;;;;4936374;28;20058;-58
2022/03/15 03:04:32;;;;;;;34.97;16.30;;;6.40;99.90;;;;;;4953767;29;20082;-59
2022/03/15 03:07:00;;;;;;;33.13;16.35;;;6.20;99.90;;;;;;4953870;29;20051;-57
2022/03/15 03:09:25;;;;;;;35.90;17.02;;;6.10;99.90;;;;;;4953635;29;20118;-58
2022/03/15 03:11:51;;;;;;;33.67;16.10;;;6.30;99.90;;;;;;4953788;28;20190;-59
2022/03/15 03:14:22;;;;;;;30.98;16.35;;;6.30;99.90;;;;;;4953427;28;20126;-58
2022/03/15 03:16:47;;;;;;;31.52;16.08;;;6.20;99.90;;;;;;4953309;29;20043;-59
2022/03/15 03:19:13;;;;;;;27.98;14.45;;;6.20;99.90;;;;;;4936322;28;20050;-57
2022/03/15 03:21:40;;;;;;;31.58;15.23;;;6.10;99.90;;;;;;4953424;28;20114;-57
2022/03/15 03:24:06;;;;;;;35.92;16.17;;;6.20;99.90;;;;;;4953744;28;20406;-58
2022/03/15 03:26:37;;;;;;;37.22;15.52;;;6.30;99.90;;;;;;4952026;29;20405;-58
2022/03/15 03:29:09;;;;;;;30.17;14.88;;;6.10;99.90;;;;;;4953177;29;20097;-58
2022/03/15 03:31:37;;;;;;;31.92;16.60;;;6.30;99.90;;;;;;4953367;28;20114;-57
2022/03/15 03:34:04;;;;;;;30.33;15.05;;;6.20;99.90;;;;;;4953166;29;20165;-57
2022/03/15 03:36:31;;;;;;;31.88;15.80;;;6.30;99.90;;;;;;4953286;29;20144;-58
2022/03/15 03:38:57;;;;;;;34.45;17.30;;;6.30;99.90;;;;;;4953126;29;20039;-57
2022/03/15 03:41:24;;;;;;;32.17;16.58;;;6.20;99.90;;;;;;4952928;28;20058;-58
2022/03/15 03:43:50;;;;;;;33.22;16.25;;;6.20;99.90;;;;;;4952945;29;20074;-59
2022/03/15 03:46:16;;;;;;;32.90;17.20;;;6.20;99.90;;;;;;4953112;28;20124;-59
2022/03/15 03:48:41;;;;;;;32.70;16.67;;;6.30;99.90;;;;;;4953273;28;20492;-58
2022/03/15 03:51:08;;;;;;;37.35;17.45;;;6.20;99.90;;;;;;4935757;28;20043;-59
2022/03/15 03:53:34;;;;;;;36.40;17.27;;;6.20;99.90;;;;;;4953158;29;20101;-59
2022/03/15 03:55:59;;;;;;;32.15;17.33;;;6.10;99.90;;;;;;4935198;28;20505;-58
2022/03/15 03:58:25;;;;;;;36.33;17.83;;;6.10;99.90;;;;;;4952906;28;20121;-59
2022/03/15 04:00:50;;;;;;;37.67;18.05;;;6.10;99.90;;;;;;4952631;28;20054;-58
2022/03/15 04:03:17;;;;;;;38.85;19.15;;;6.00;99.90;;;;;;4953068;28;20039;-58
2022/03/15 04:05:45;;;;;;;31.80;16.63;;;5.90;99.90;;;;;;4952958;29;20465;-55
2022/03/15 04:08:12;;;;;;;32.55;15.50;;;6.10;99.90;;;;;;4952790;29;20161;-57
2022/03/15 04:10:38;;;;;;;38.50;18.25;;;6.20;99.90;;;;;;4952848;28;20039;-58
2022/03/15 04:13:04;;;;;;;35.00;16.50;;;;;;;;;;4952470;28;20570;-58
2022/03/15 04:15:33;;;;;;;33.15;16.02;;;6.00;99.90;;;;;;4935660;28;20073;-58
2022/03/15 04:17:59;;;;;;;31.55;16.90;;;6.20;99.90;;;;;;4952636;28;20055;-56
2022/03/15 04:20:25;;;;;;;27.70;16.48;;;6.10;99.90;;;;;;4952673;28;20039;-57
2022/03/15 04:22:50;;;;;;;29.75;15.85;;;5.90;99.90;;;;;;4952554;29;20047;-59
2022/03/15 04:25:16;;;;;;;26.27;16.02;;;6.00;99.90;;;;;;4952693;28;20047;-58
2022/03/15 04:27:42;;;;;;;26.75;15.07;;;;;;;;;;4952377;28;20101;-60
2022/03/15 04:30:08;;;;;;;33.17;16.88;;;5.90;99.90;;;;;;4952518;28;20047;-57
2022/03/15 04:32:34;;;;;;;28.27;15.82;;;6.00;99.90;;;;;;4952483;29;20493;-58
2022/03/15 04:35:00;;;;;;;38.58;19.15;;;5.90;99.90;;;;;;4952300;28;20069;-59
2022/03/15 04:37:25;;;;;;;33.03;16.58;;;5.90;99.90;;;;;;4952354;28;20044;-59
2022/03/15 04:39:51;;;;;;;42.90;19.00;;;5.80;99.90;;;;;;4952514;28;20440;-58
2022/03/15 04:42:17;;;;;;;37.58;17.88;;;5.80;99.90;;;;;;4952480;28;20071;-58
2022/03/15 04:44:42;;;;;;;34.00;18.60;;;5.80;99.90;;;;;;4952107;28;20485;-58
2022/03/15 04:47:08;;;;;;;46.03;18.42;;;5.90;99.90;;;;;;4952402;28;20074;-59
2022/03/15 04:49:34;;;;;;;37.00;18.75;;;5.80;99.90;;;;;;4935069;28;20390;-59
2022/03/15 04:52:02;;;;;;;34.17;19.13;;;5.90;99.90;;;;;;4952267;28;20047;-58
2022/03/15 04:54:28;;;;;;;38.42;17.98;;;5.80;99.90;;;;;;4952494;29;20078;-59
2022/03/15 04:56:54;;;;;;;42.95;19.33;;;5.90;99.90;;;;;;4952020;28;20043;-58
2022/03/15 04:59:19;;;;;;;33.25;17.95;;;5.70;99.90;;;;;;4950764;29;20114;-57
2022/03/15 05:01:45;;;;;;;41.13;19.17;;;5.80;99.90;;;;;;4950651;28;20509;-58
2022/03/15 05:04:11;;;;;;;37.40;19.60;;;5.80;99.90;;;;;;4952143;28;20043;-58
2022/03/15 05:06:38;;;;;;;37.05;19.33;;;5.80;99.90;;;;;;4954176;28;20084;-58
2022/03/15 05:09:04;;;;;;;32.38;17.33;;;5.80;99.90;;;;;;4955461;28;20043;-57
2022/03/15 05:11:30;;;;;;;38.60;18.95;;;5.80;99.90;;;;;;4955478;28;20040;-59
2022/03/15 05:13:56;;;;;;;35.78;18.58;;;5.80;99.90;;;;;;4955390;29;20046;-59
2022/03/15 05:16:22;;;;;;;34.47;18.45;;;5.80;99.90;;;;;;4955297;28;20378;-59
2022/03/15 05:18:51;;;;;;;38.25;19.05;;;5.90;99.90;;;;;;4955070;29;20043;-58
2022/03/15 05:21:17;;;;;;;33.70;18.13;;;5.80;99.90;;;;;;4955237;28;20418;-59
2022/03/15 05:23:45;;;;;;;36.33;18.60;;;5.70;99.90;;;;;;4954119;29;20044;-59
2022/03/15 05:26:11;;;;;;;40.75;19.63;;;;;;;;;;4954967;28;20050;-59
2022/03/15 05:28:37;;;;;;;37.20;17.48;;;5.80;99.90;;;;;;4955333;29;20051;-58
2022/03/15 05:31:02;;;;;;;31.45;18.25;;;5.70;99.90;;;;;;4944846;28;20042;-59
2022/03/15 05:33:28;;;;;;;35.42;18.15;;;5.60;99.90;;;;;;4972642;28;20073;-59
2022/03/15 05:35:54;;;;;;;39.67;18.88;;;;;;;;;;4973090;28;20417;-58
2022/03/15 05:38:20;;;;;;;43.78;20.58;;;5.70;99.90;;;;;;4973493;28;20057;-58
2022/03/15 05:40:46;;;;;;;37.15;19.05;;;5.70;99.90;;;;;;4972702;28;20480;-60
2022/03/15 05:43:12;;;;;;;38.53;20.33;;;5.70;99.90;;;;;;4970612;28;20084;-57
2022/03/15 05:45:38;;;;;;;40.55;19.67;;;5.80;99.90;;;;;;4954490;28;21211;-57
2022/03/15 05:48:04;;;;;;;38.42;20.13;;;5.70;99.90;;;;;;4955626;28;20050;-56
2022/03/15 05:50:30;;;;;;;39.58;20.83;;;5.80;99.90;;;;;;4972713;28;20042;-59
2022/03/15 05:52:56;;;;;;;39.78;21.35;;;5.70;99.90;;;;;;4973093;28;20034;-57
2022/03/15 05:55:21;;;;;;;37.55;21.70;;;5.60;99.90;;;;;;4955213;28;20050;-60
2022/03/15 05:57:47;;;;;;;39.53;20.30;;;5.90;99.90;;;;;;4952830;28;20065;-57
2022/03/15 06:00:13;;;;;;;39.97;20.50;;;5.90;99.90;;;;;;4972550;28;20089;-57
2022/03/15 06:02:40;;;;;;;44.42;22.15;;;;;;;;;;4972542;28;20528;-59
2022/03/15 06:05:07;;;;;;;42.05;22.33;;;;;;;;;;4971438;28;20050;-63
2022/03/15 06:07:33;;;;;;;48.67;23.92;;;;;;;;;;4952507;28;20133;-59
2022/03/15 06:09:59;;;;;;;50.17;25.00;;;;;;;;;;4969131;28;20058;-59
2022/03/15 06:12:25;;;;;;;47.30;24.10;;;;;;;;;;4964460;28;20060;-60
2022/03/15 06:14:52;;;;;;;41.45;23.67;;;;;;;;;;4966565;28;20039;-60
2022/03/15 06:17:18;;;;;;;41.83;24.02;;;5.90;99.90;;;;;;4967362;28;20042;-60
2022/03/15 06:19:44;;;;;;;38.42;21.83;;;6.00;99.90;;;;;;4967421;28;20034;-61
2022/03/15 06:22:09;;;;;;;33.85;21.52;;;5.90;99.90;;;;;;4950182;28;20043;-59
2022/03/15 06:24:36;;;;;;;42.75;22.67;;;6.00;99.90;;;;;;4949491;28;20211;-62
2022/03/15 06:27:03;;;;;;;34.17;20.48;;;;;;;;;;4943246;28;20050;-62
2022/03/15 06:29:30;;;;;;;35.90;20.70;;;;;;;;;;4947986;28;20614;-63
2022/03/15 06:31:56;;;;;;;38.85;21.83;;;;;;;;;;4967618;28;20046;-62
2022/03/15 06:34:23;;;;;;;39.08;23.60;;;;;;;;;;4968391;28;20504;-62
2022/03/15 06:36:49;;;;;;;40.38;21.02;;;6.00;99.90;;;;;;4967322;28;20058;-62
2022/03/15 06:39:15;;;;;;;36.65;20.60;;;;;;;;;;4964556;28;20043;-62
2022/03/15 06:41:43;;;;;;;35.28;20.45;;;;;;;;;;4966372;28;20642;-62
2022/03/15 06:44:11;;;;;;;34.47;20.05;;;;;;;;;;4948061;28;20047;-62
2022/03/15 06:46:37;;;;;;;35.00;20.02;;;;;;;;;;4948849;28;20485;-63
2022/03/15 06:49:04;;;;;;;34.63;20.38;;;5.90;99.90;;;;;;4965512;28;20108;-62
2022/03/15 06:51:30;;;;;;;28.35;19.15;;;;;;;;;;4950587;28;20051;-62
2022/03/15 06:53:56;;;;;;;31.83;17.55;;;;;;;;;;4965252;28;20443;-62
2022/03/15 06:56:21;;;;;;;34.28;18.23;;;6.10;99.90;;;;;;4970935;28;20043;-63
2022/03/15 06:58:48;;;;;;;33.70;18.25;;;6.00;99.90;;;;;;4972922;28;20108;-64
2022/03/15 07:01:14;;;;;;;34.42;18.83;;;5.90;99.90;;;;;;4942877;28;20043;-63
2022/03/15 07:03:39;;;;;;;35.72;20.08;;;6.30;99.90;;;;;;4948796;29;20106;-63
2022/03/15 07:06:06;;;;;;;32.92;18.42;;;;;;;;;;4931469;29;20046;-63
2022/03/15 07:08:32;;;;;;;34.20;19.65;;;;;;;;;;4948170;29;20513;-63
2022/03/15 07:10:58;;;;;;;42.17;21.85;;;;;;;;;;4948595;28;20444;-63
2022/03/15 07:13:23;;;;;;;40.70;22.40;;;6.20;99.90;;;;;;4931350;29;20058;-63
2022/03/15 07:15:49;;;;;;;42.58;22.13;;;6.40;99.90;;;;;;4931539;28;20054;-63
2022/03/15 07:18:19;;;;;;;40.13;22.77;;;;;;;;;;4948891;28;20096;-64
2022/03/15 07:20:45;;;;;;;44.88;25.33;;;6.30;99.90;;;;;;4948421;28;20416;-63
2022/03/15 07:23:11;;;;;;;51.95;24.85;;;;;;;;;;4945333;28;20042;-63
2022/03/15 07:25:37;;;;;;;49.25;25.80;;;;;;;;;;4965568;28;20073;-63
2022/03/15 07:28:03;;;;;;;42.50;23.00;;;;;;;;;;4966516;28;20046;-63
2022/03/15 07:30:29;;;;;;;42.50;23.90;;;;;;;;;;4946547;28;20554;-63
2022/03/15 07:32:55;;;;;;;43.88;23.83;;;;;;;;;;4965554;28;20263;-63
2022/03/15 07:35:22;;;;;;;47.40;24.13;;;;;;;;;;4967028;28;20062;-63
2022/03/15 07:37:53;;;;;;;43.20;25.02;;;;;;;;;;4950136;28;20083;-64
2022/03/15 07:40:19;;;;;;;49.72;25.48;;;;;;;;;;4967840;28;20050;-63
2022/03/15 07:42:46;;;;;;;44.15;24.08;;;6.70;99.90;;;;;;4950380;28;20608;-64
2022/03/15 07:45:12;;;;;;;38.22;23.98;;;6.80;99.90;;;;;;4945270;28;20047;-64
2022/03/15 07:47:38;;;;;;;47.72;23.77;;;;;;;;;;4948132;28;20065;-64
2022/03/15 07:50:04;;;;;;;46.03;25.73;;;6.80;99.90;;;;;;4943884;28;20077;-64
2022/03/15 07:52:30;;;;;;;46.35;24.05;;;;;;;;;;4964620;28;20082;-65
2022/03/15 07:54:56;;;;;;;43.85;23.67;;;;;;;;;;4947764;28;20078;-64
2022/03/15 07:57:22;;;;;;;43.45;23.77;;;6.80;99.90;;;;;;4948723;28;20074;-64
2022/03/15 07:59:48;;;;;;;40.95;24.40;;;6.90;99.90;;;;;;4966172;28;20031;-64
2022/03/15 08:02:15;;;;;;;37.50;24.75;;;;;;;;;;4966201;28;20118;-63
2022/03/15 08:04:41;;;;;;;43.28;25.02;;;;;;;;;;4946494;28;20133;-64
2022/03/15 08:07:08;;;;;;;37.05;23.83;;;;;;;;;;4966955;28;20107;-64
2022/03/15 08:09:34;;;;;;;49.47;26.55;;;7.20;99.90;;;;;;4949741;28;20057;-63
2022/03/15 08:12:00;;;;;;;35.30;21.85;;;;;;;;;;4966962;28;20053;-64
2022/03/15 08:14:26;;;;;;;46.58;25.65;;;;;;;;;;4933079;28;20054;-64
2022/03/15 08:16:52;;;;;;;42.17;24.63;;;;;;;;;;4944924;28;20050;-62
2022/03/15 08:19:18;;;;;;;42.78;24.55;;;;;;;;;;4950610;28;20057;-64
2022/03/15 08:21:44;;;;;;;39.15;23.23;;;;;;;;;;4966986;28;20057;-64
2022/03/15 08:24:14;;;;;;;48.10;25.13;;;;;;;;;;4996336;28;20451;-64
2022/03/15 08:26:40;;;;;;;39.60;25.02;;;7.30;99.90;;;;;;5034365;28;20102;-65
2022/03/15 08:29:06;;;;;;;44.15;25.33;;;7.40;99.90;;;;;;5051814;28;20037;-63
2022/03/15 08:31:32;;;;;;;44.15;26.77;;;7.30;99.90;;;;;;5034182;28;20075;-65
2022/03/15 08:33:58;;;;;;;41.65;24.50;;;7.40;99.90;;;;;;5023712;28;20086;-64
2022/03/15 08:36:23;;;;;;;39.63;23.52;;;7.50;99.90;;;;;;5019104;28;20037;-65
2022/03/15 08:38:50;;;;;;;37.25;23.77;;;;;;;;;;4958002;28;20133;-65
2022/03/15 08:41:16;;;;;;;41.30;24.17;;;7.50;99.90;;;;;;4969105;28;20100;-65
2022/03/15 08:43:42;;;;;;;43.22;24.60;;;;;;;;;;4969907;28;20097;-65
2022/03/15 08:46:08;;;;;;;40.53;24.52;;;7.50;99.90;;;;;;4953593;28;20417;-65
2022/03/15 08:48:33;;;;;;;36.78;24.15;;;7.50;99.90;;;;;;4950943;29;20043;-65
2022/03/15 08:51:00;;;;;;;38.22;22.90;;;7.50;99.90;;;;;;4950909;28;20043;-65
2022/03/15 08:53:32;;;;;;;40.80;23.42;;;7.60;99.90;;;;;;4951078;29;20050;-64
2022/03/15 08:55:57;;;;;;;37.70;23.95;;;7.40;99.90;;;;;;4951474;29;20081;-64
2022/03/15 08:58:23;;;;;;;36.40;24.20;;;;;;;;;;4943038;28;20074;-61
2022/03/15 09:00:50;;;;;;;36.92;24.02;;;;;;;;;;4950019;28;20047;-62
2022/03/15 09:03:16;;;;;;;36.22;22.38;;;7.60;99.90;;;;;;4952074;28;20388;-65
2022/03/15 09:05:41;;;;;;;39.85;24.35;;;7.50;99.90;;;;;;4967676;28;20156;-63
2022/03/15 09:08:07;;;;;;;41.00;24.23;;;7.70;99.90;;;;;;4965908;28;20078;-64
2022/03/15 09:10:33;;;;;;;39.03;23.08;;;;;;;;;;4969019;28;20035;-64
2022/03/15 09:13:06;;;;;;;47.03;24.65;;;;;;;;;;4963642;28;20050;-60
2022/03/15 09:15:32;;;;;;;37.95;24.48;;;;;;;;;;4952178;28;20130;-66
2022/03/15 09:17:58;;;;;;;38.60;24.38;;;;;;;;;;4959092;28;20093;-64
2022/03/15 09:20:43;;;;;;;32.95;23.00;;;;;;;;;;4954046;28;20224;-63
2022/03/15 09:23:09;;;;;;;41.30;24.02;;;7.90;99.90;;;;;;4951079;28;20054;-64
2022/03/15 09:25:36;;;;;;;42.15;22.58;;;;;;;;;;4968876;28;20035;-64
2022/03/15 09:28:02;;;;;;;36.85;23.65;;;;;;;;;;4969260;28;20419;-64
2022/03/15 09:30:30;;;;;;;37.35;23.05;;;;;;;;;;4966446;28;20039;-65
2022/03/15 09:32:59;;;;;;;36.78;23.33;;;8.00;99.90;;;;;;4950282;28;20047;-64
2022/03/15 09:35:25;;;;;;;33.42;20.73;;;8.30;99.90;;;;;;4951066;28;20062;-64
2022/03/15 09:37:51;;;;;;;34.22;21.98;;;;;;;;;;4956654;28;20039;-64
2022/03/15 09:40:22;;;;;;;45.65;30.33;;;8.30;99.90;;;;;;4954522;28;20051;-64
2022/03/15 09:43:01;;;;;;;55.30;38.08;;;8.10;99.90;;;;;;4965820;28;20027;-60
2022/03/15 09:45:35;;;;;;;37.70;23.08;;;8.30;99.90;;;;;;4959028;28;20058;-63
2022/03/15 09:48:04;;;;;;;36.08;23.70;;;8.50;99.90;;;;;;4941572;28;20070;-62
2022/03/15 09:50:36;;;;;;;35.42;22.08;;;;;;;;;;4971697;28;20026;-59
2022/03/15 09:53:30;;;;;;;34.60;21.85;;;8.70;99.90;;;;;;4949875;28;20030;-60
2022/03/15 09:55:56;;;;;;;32.05;21.02;;;;;;;;;;4966820;28;20059;-60
2022/03/15 09:58:23;;;;;;;31.95;20.90;;;;;;;;;;4966557;28;20026;-60
2022/03/15 10:00:51;;;;;;;35.80;20.75;;;;;;;;;;4984540;28;20051;-65
2022/03/15 10:03:17;;;;;;;35.50;20.92;;;;;;;;;;4972424;28;20496;-63
2022/03/15 10:05:45;;;;;;;29.85;19.77;;;8.60;99.90;;;;;;4964699;28;20133;-63
2022/03/15 10:08:13;;;;;;;39.92;22.45;;;8.80;99.90;;;;;;4949623;28;20050;-64
2022/03/15 10:10:38;;;;;;;35.65;21.13;;;;;;;;;;4937170;28;20100;-63
2022/03/15 10:13:04;;;;;;;30.13;20.52;;;;;;;;;;4989179;28;20049;-61
2022/03/15 10:15:30;;;;;;;33.85;20.67;;;;;;;;;;4978230;28;20047;-62
2022/03/15 10:18:04;;;;;;;30.20;19.52;;;8.90;99.90;;;;;;4973750;28;20046;-63
2022/03/15 10:20:38;;;;;;;26.50;18.10;;;8.90;99.90;;;;;;4950619;28;20050;-64
2022/03/15 10:23:04;;;;;;;30.98;19.23;;;;;;;;;;4968113;28;20043;-62
2022/03/15 10:25:50;;;;;;;24.35;18.35;;;8.90;99.90;;;;;;4954489;28;20046;-59
2022/03/15 10:28:16;;;;;;;33.33;21.05;;;;;;;;;;4981005;28;20050;-64
2022/03/15 10:30:44;;;;;;;33.13;20.75;;;9.00;99.90;;;;;;4979359;28;20045;-61
2022/03/15 10:33:10;;;;;;;30.02;19.67;;;9.20;99.90;;;;;;4934496;28;20035;-64
2022/03/15 10:35:41;;;;;;;27.30;18.27;;;9.40;99.90;;;;;;4966735;28;20141;-64
2022/03/15 10:38:08;;;;;;;36.35;20.13;;;9.70;99.90;;;;;;4950909;28;20091;-62
2022/03/15 10:40:47;;;;;;;30.05;18.83;;;9.70;99.90;;;;;;4958582;28;20051;-62
2022/03/15 10:43:13;;;;;;;30.40;18.95;;;;;;;;;;4950383;28;20041;-61
2022/03/15 10:45:48;;;;;;;28.45;18.73;;;9.80;99.90;;;;;;4965326;28;20050;-62
2022/03/15 10:48:23;;;;;;;27.10;18.10;;;9.60;99.90;;;;;;4950035;28;20401;-62
2022/03/15 10:50:52;;;;;;;30.80;18.98;;;9.80;99.90;;;;;;4967264;28;20046;-63
2022/03/15 10:53:17;;;;;;;30.00;17.02;;;9.80;99.90;;;;;;4934291;28;20099;-62
2022/03/15 10:55:44;;;;;;;31.55;18.85;;;;;;;;;;4942716;28;20043;-66
2022/03/15 10:58:12;;;;;;;27.45;17.73;;;;;;;;;;4949251;28;20055;-63
2022/03/15 11:00:40;;;;;;;27.80;19.45;;;9.90;99.90;;;;;;4949356;28;20137;-66
2022/03/15 11:03:09;;;;;;;25.30;17.90;;;9.70;99.90;;;;;;4949417;28;20042;-65
2022/03/15 11:05:38;;;;;;;30.40;19.65;;;9.60;99.90;;;;;;4949497;28;20492;-65
2022/03/15 11:08:12;;;;;;;26.48;17.20;;;9.60;99.90;;;;;;4940321;29;20043;-66
2022/03/15 11:10:40;;;;;;;28.63;18.70;;;9.40;99.90;;;;;;4949864;28;20125;-66
2022/03/15 11:13:11;;;;;;;29.58;17.58;;;9.60;99.90;;;;;;4945747;28;20054;-65
2022/03/15 11:15:53;;;;;;;28.67;17.90;;;9.50;99.90;;;;;;4950347;28;20125;-64
2022/03/15 11:18:19;;;;;;;29.00;17.48;;;;;;;;;;4949319;28;20039;-65
2022/03/15 11:20:47;;;;;;;27.75;18.13;;;9.60;99.90;;;;;;4970541;28;20054;-66
2022/03/15 11:23:14;;;;;;;29.13;17.60;;;9.70;99.90;;;;;;4952978;28;20038;-67
2022/03/15 11:25:45;;;;;;;27.75;18.20;;;9.70;99.90;;;;;;4968063;28;20172;-65
2022/03/15 11:28:14;;;;;;;29.70;17.10;;;9.80;99.90;;;;;;4952881;28;20043;-66
2022/03/15 11:30:43;;;;;;;30.65;19.23;;;9.80;99.90;;;;;;4970189;28;20031;-65
2022/03/15 11:33:10;;;;;;;32.00;18.85;;;9.70;99.90;;;;;;4953386;28;20042;-66
2022/03/15 11:35:37;;;;;;;28.42;18.88;;;9.80;99.90;;;;;;4969918;28;20092;-66
2022/03/15 11:38:07;;;;;;;29.45;19.55;;;9.70;99.90;;;;;;4970033;28;20122;-66
2022/03/15 11:40:33;;;;;;;29.20;19.08;;;;;;;;;;4952356;28;20043;-63
2022/03/15 11:43:38;;;;;;;29.13;18.20;;;9.90;99.90;;;;;;4969759;28;20046;-66
2022/03/15 11:46:12;;;;;;;27.35;16.75;;;9.70;99.90;;;;;;4947772;28;20042;-67
2022/03/15 11:48:44;;;;;;;27.48;17.70;;;9.70;99.90;;;;;;4969497;28;20053;-67
2022/03/15 11:51:36;;;;;;;31.40;17.92;;;9.90;99.90;;;;;;4915669;28;20052;-65
2022/03/15 11:54:37;;;;;;;26.88;17.05;;;9.90;99.90;;;;;;4915524;29;20047;-65
2022/03/15 11:57:10;;;;;;;29.40;18.63;;;10.00;99.90;;;;;;4924349;29;20064;-66
2022/03/15 11:59:47;;;;;;;31.70;18.52;;;10.00;99.90;;;;;;4915760;29;20142;-65
2022/03/15 12:02:12;;;;;;;33.60;18.80;;;10.20;99.90;;;;;;4932484;29;20087;-64
2022/03/15 12:04:44;;;;;;;29.83;18.05;;;10.00;99.90;;;;;;4932750;29;20078;-64
2022/03/15 12:07:11;;;;;;;28.52;17.40;;;10.10;99.90;;;;;;4932521;29;20582;-64
2022/03/15 12:09:47;;;;;;;25.23;16.88;;;10.30;99.90;;;;;;4915386;29;20044;-64
2022/03/15 12:12:14;;;;;;;26.77;17.50;;;10.40;99.90;;;;;;4969688;28;20091;-65
2022/03/15 12:14:46;;;;;;;27.05;17.08;;;10.30;99.90;;;;;;5052222;28;20044;-65
2022/03/15 12:17:13;;;;;;;27.08;17.50;;;;;;;;;;5034131;28;20047;-65
2022/03/15 12:19:47;;;;;;;25.40;17.17;;;10.60;99.90;;;;;;4968365;28;20134;-65
2022/03/15 12:22:30;;;;;;;29.67;16.33;;;10.40;99.90;;;;;;4951254;28;20066;-65
2022/03/15 12:25:05;;;;;;;22.58;16.88;;;10.60;99.90;;;;;;4951654;29;20039;-64
2022/03/15 12:27:49;;;;;;;27.30;17.13;;;10.60;99.90;;;;;;4952432;29;20070;-67
2022/03/15 12:30:26;;;;;;;23.27;14.90;;;10.70;99.90;;;;;;4952235;28;20066;-67
2022/03/15 12:32:54;;;;;;;25.15;15.18;;;10.70;99.90;;;;;;4952440;28;20061;-66
2022/03/15 12:35:27;;;;;;;28.15;15.27;;;10.70;99.90;;;;;;4932783;28;20121;-61
2022/03/15 12:38:46;;;;;;;23.00;15.27;;;11.00;99.90;;;;;;4914994;29;20449;-62
2022/03/15 12:41:12;;;;;;;28.67;14.50;;;;;;;;;;4946030;28;20036;-64
2022/03/15 12:43:38;;;;;;;18.60;12.63;;;;;;;;;;4950211;28;20493;-63
2022/03/15 12:46:06;;;;;;;28.48;13.48;;;11.10;99.90;;;;;;4931841;29;20445;-63
2022/03/15 12:48:37;;;;;;;21.95;14.30;;;11.20;99.90;;;;;;4950516;28;20053;-63
2022/03/15 12:51:04;;;;;;;21.85;13.45;;;11.30;99.90;;;;;;4949961;28;20058;-63
2022/03/15 12:53:41;;;;;;;25.05;13.60;;;11.30;99.90;;;;;;4950304;28;20588;-63
2022/03/15 12:56:10;;;;;;;21.45;13.30;;;11.40;99.90;;;;;;4950707;28;20027;-64
2022/03/15 12:58:37;;;;;;;22.52;13.40;;;;;;;;;;4947862;28;20490;-64
2022/03/15 13:01:03;;;;;;;22.17;13.05;;;11.60;99.90;;;;;;4950751;28;20036;-64
2022/03/15 13:03:29;;;;;;;20.60;11.80;;;11.60;99.90;;;;;;4949816;29;20043;-64